sensor_id;sensor_type;location;lat;lon;timestamp;temperature;humidity
33508;DHT22;25568;37.410;-122.096;2023-03-03T00:00:47;18.30;80.70
33508;DHT22;25568;37.410;-122.096;2023-03-03T00:03:18;18.30;80.70
33508;DHT22;25568;37.410;-122.096;2023-03-03T00:05:46;18.30;80.80
33508;DHT22;25568;37.410;-122.096;2023-03-03T00:08:16;18.30;80.90
33508;DHT22;25568;37.410;-122.096;2023-03-03T00:10:45;18.40;81.00
33508;DHT22;25568;37.410;-122.096;2023-03-03T00:13:17;18.40;80.90
33508;DHT22;25568;37.410;-122.096;2023-03-03T00:15:47;18.40;80.90
33508;DHT22;25568;37.410;-122.096;2023-03-03T00:18:24;18.40;80.90
33508;DHT22;25568;37.410;-122.096;2023-03-03T00:20:55;18.40;81.00
33508;DHT22;25568;37.410;-122.096;2023-03-03T00:23:30;18.40;80.90
33508;DHT22;25568;37.410;-122.096;2023-03-03T00:25:59;18.40;80.90
33508;DHT22;25568;37.410;-122.096;2023-03-03T00:28:30;18.40;80.90
33508;DHT22;25568;37.410;-122.096;2023-03-03T00:31:01;18.50;81.00
33508;DHT22;25568;37.410;-122.096;2023-03-03T00:33:31;18.50;80.90
33508;DHT22;25568;37.410;-122.096;2023-03-03T00:36:27;18.50;80.90
33508;DHT22;25568;37.410;-122.096;2023-03-03T00:39:10;18.50;81.00
33508;DHT22;25568;37.410;-122.096;2023-03-03T00:41:41;18.50;81.00
33508;DHT22;25568;37.410;-122.096;2023-03-03T00:44:41;18.50;81.00
33508;DHT22;25568;37.410;-122.096;2023-03-03T00:47:26;18.50;81.00
33508;DHT22;25568;37.410;-122.096;2023-03-03T00:49:59;18.50;81.00
33508;DHT22;25568;37.410;-122.096;2023-03-03T00:52:52;18.50;81.00
33508;DHT22;25568;37.410;-122.096;2023-03-03T00:55:23;18.50;81.00
33508;DHT22;25568;37.410;-122.096;2023-03-03T00:57:52;18.50;81.00
33508;DHT22;25568;37.410;-122.096;2023-03-03T01:00:22;18.50;80.50
33508;DHT22;25568;37.410;-122.096;2023-03-03T01:02:51;18.50;81.10
33508;DHT22;25568;37.410;-122.096;2023-03-03T01:05:20;18.60;81.20
33508;DHT22;25568;37.410;-122.096;2023-03-03T01:07:49;18.60;82.00
33508;DHT22;25568;37.410;-122.096;2023-03-03T01:10:18;18.60;81.20
33508;DHT22;25568;37.410;-122.096;2023-03-03T01:12:47;18.60;81.20
33508;DHT22;25568;37.410;-122.096;2023-03-03T01:15:17;18.60;81.20
33508;DHT22;25568;37.410;-122.096;2023-03-03T01:17:48;18.60;81.30
33508;DHT22;25568;37.410;-122.096;2023-03-03T01:20:17;18.60;81.30
33508;DHT22;25568;37.410;-122.096;2023-03-03T01:22:46;18.60;81.30
33508;DHT22;25568;37.410;-122.096;2023-03-03T01:25:15;18.60;81.40
33508;DHT22;25568;37.410;-122.096;2023-03-03T01:27:44;18.60;81.40
33508;DHT22;25568;37.410;-122.096;2023-03-03T01:30:13;18.60;81.50
33508;DHT22;25568;37.410;-122.096;2023-03-03T01:32:42;18.60;81.40
33508;DHT22;25568;37.410;-122.096;2023-03-03T01:35:13;18.60;81.50
33508;DHT22;25568;37.410;-122.096;2023-03-03T01:37:42;18.60;81.50
33508;DHT22;25568;37.410;-122.096;2023-03-03T01:40:15;18.60;81.50
33508;DHT22;25568;37.410;-122.096;2023-03-03T01:42:44;18.60;81.40
33508;DHT22;25568;37.410;-122.096;2023-03-03T01:45:16;18.60;81.40
33508;DHT22;25568;37.410;-122.096;2023-03-03T01:47:48;18.60;81.40
33508;DHT22;25568;37.410;-122.096;2023-03-03T01:50:29;18.60;81.40
33508;DHT22;25568;37.410;-122.096;2023-03-03T01:53:00;18.60;81.40
33508;DHT22;25568;37.410;-122.096;2023-03-03T01:55:33;18.60;81.50
33508;DHT22;25568;37.410;-122.096;2023-03-03T01:58:06;18.60;81.50
33508;DHT22;25568;37.410;-122.096;2023-03-03T02:00:38;18.60;81.30
33508;DHT22;25568;37.410;-122.096;2023-03-03T02:03:08;18.60;81.30
33508;DHT22;25568;37.410;-122.096;2023-03-03T02:05:40;18.60;81.40
33508;DHT22;25568;37.410;-122.096;2023-03-03T02:08:11;18.60;81.30
33508;DHT22;25568;37.410;-122.096;2023-03-03T02:10:44;18.60;81.30
33508;DHT22;25568;37.410;-122.096;2023-03-03T02:13:13;18.50;81.30
33508;DHT22;25568;37.410;-122.096;2023-03-03T02:15:42;18.50;81.30
33508;DHT22;25568;37.410;-122.096;2023-03-03T02:18:14;18.60;81.30
33508;DHT22;25568;37.410;-122.096;2023-03-03T02:20:54;18.50;81.30
33508;DHT22;25568;37.410;-122.096;2023-03-03T02:23:29;18.60;81.40
33508;DHT22;25568;37.410;-122.096;2023-03-03T02:26:12;18.50;81.30
33508;DHT22;25568;37.410;-122.096;2023-03-03T02:28:42;18.50;81.30
33508;DHT22;25568;37.410;-122.096;2023-03-03T02:31:12;18.50;81.30
33508;DHT22;25568;37.410;-122.096;2023-03-03T02:33:43;18.50;81.30
33508;DHT22;25568;37.410;-122.096;2023-03-03T02:36:13;18.50;81.40
33508;DHT22;25568;37.410;-122.096;2023-03-03T02:38:46;18.50;81.40
33508;DHT22;25568;37.410;-122.096;2023-03-03T02:41:25;18.50;81.50
33508;DHT22;25568;37.410;-122.096;2023-03-03T02:43:58;18.50;81.40
33508;DHT22;25568;37.410;-122.096;2023-03-03T02:46:28;18.50;81.40
33508;DHT22;25568;37.410;-122.096;2023-03-03T02:48:57;18.50;81.30
33508;DHT22;25568;37.410;-122.096;2023-03-03T02:51:26;18.50;81.30
33508;DHT22;25568;37.410;-122.096;2023-03-03T02:53:55;18.40;81.20
33508;DHT22;25568;37.410;-122.096;2023-03-03T02:56:25;18.40;81.20
33508;DHT22;25568;37.410;-122.096;2023-03-03T02:58:54;18.40;81.30
33508;DHT22;25568;37.410;-122.096;2023-03-03T03:01:23;18.40;81.20
33508;DHT22;25568;37.410;-122.096;2023-03-03T03:03:52;18.40;81.00
33508;DHT22;25568;37.410;-122.096;2023-03-03T03:06:21;18.40;81.20
33508;DHT22;25568;37.410;-122.096;2023-03-03T03:08:50;18.30;81.00
33508;DHT22;25568;37.410;-122.096;2023-03-03T03:11:18;18.30;81.00
33508;DHT22;25568;37.410;-122.096;2023-03-03T03:13:49;18.30;81.10
33508;DHT22;25568;37.410;-122.096;2023-03-03T03:16:18;18.30;81.00
33508;DHT22;25568;37.410;-122.096;2023-03-03T03:18:47;18.40;80.80
33508;DHT22;25568;37.410;-122.096;2023-03-03T03:21:17;18.30;80.70
33508;DHT22;25568;37.410;-122.096;2023-03-03T03:23:46;18.30;80.70
33508;DHT22;25568;37.410;-122.096;2023-03-03T03:26:15;18.30;80.60
33508;DHT22;25568;37.410;-122.096;2023-03-03T03:28:44;18.30;80.70
33508;DHT22;25568;37.410;-122.096;2023-03-03T03:31:15;18.30;80.90
33508;DHT22;25568;37.410;-122.096;2023-03-03T03:33:44;18.30;81.20
33508;DHT22;25568;37.410;-122.096;2023-03-03T03:36:13;18.30;81.30
33508;DHT22;25568;37.410;-122.096;2023-03-03T03:38:42;18.30;81.30
33508;DHT22;25568;37.410;-122.096;2023-03-03T03:41:11;18.30;81.60
33508;DHT22;25568;37.410;-122.096;2023-03-03T03:43:41;18.30;82.00
33508;DHT22;25568;37.410;-122.096;2023-03-03T03:46:10;18.30;82.30
33508;DHT22;25568;37.410;-122.096;2023-03-03T03:48:40;18.30;82.70
33508;DHT22;25568;37.410;-122.096;2023-03-03T03:51:10;18.30;83.00
33508;DHT22;25568;37.410;-122.096;2023-03-03T03:53:39;18.30;83.80
33508;DHT22;25568;37.410;-122.096;2023-03-03T03:56:08;18.20;84.60
33508;DHT22;25568;37.410;-122.096;2023-03-03T03:58:39;18.30;85.60
33508;DHT22;25568;37.410;-122.096;2023-03-03T04:01:08;18.30;86.10
33508;DHT22;25568;37.410;-122.096;2023-03-03T04:03:37;18.30;86.60
33508;DHT22;25568;37.410;-122.096;2023-03-03T04:06:07;18.30;86.80
33508;DHT22;25568;37.410;-122.096;2023-03-03T04:08:36;18.30;86.90
33508;DHT22;25568;37.410;-122.096;2023-03-03T04:11:05;18.30;87.10
33508;DHT22;25568;37.410;-122.096;2023-03-03T04:13:34;18.30;87.10
33508;DHT22;25568;37.410;-122.096;2023-03-03T04:16:03;18.30;87.10
33508;DHT22;25568;37.410;-122.096;2023-03-03T04:18:32;18.30;87.10
33508;DHT22;25568;37.410;-122.096;2023-03-03T04:21:01;18.20;86.90
33508;DHT22;25568;37.410;-122.096;2023-03-03T04:23:32;18.20;86.80
33508;DHT22;25568;37.410;-122.096;2023-03-03T04:26:00;18.20;86.80
33508;DHT22;25568;37.410;-122.096;2023-03-03T04:28:29;18.20;86.80
33508;DHT22;25568;37.410;-122.096;2023-03-03T04:30:58;18.20;86.70
33508;DHT22;25568;37.410;-122.096;2023-03-03T04:33:27;18.20;86.70
33508;DHT22;25568;37.410;-122.096;2023-03-03T04:35:56;18.20;86.70
33508;DHT22;25568;37.410;-122.096;2023-03-03T04:38:25;18.20;86.60
33508;DHT22;25568;37.410;-122.096;2023-03-03T04:40:56;18.20;86.60
33508;DHT22;25568;37.410;-122.096;2023-03-03T04:43:25;18.20;86.60
33508;DHT22;25568;37.410;-122.096;2023-03-03T04:45:54;18.20;86.50
33508;DHT22;25568;37.410;-122.096;2023-03-03T04:48:23;18.20;86.40
33508;DHT22;25568;37.410;-122.096;2023-03-03T04:50:51;18.20;86.40
33508;DHT22;25568;37.410;-122.096;2023-03-03T04:53:21;18.10;86.40
33508;DHT22;25568;37.410;-122.096;2023-03-03T04:55:50;18.10;87.20
33508;DHT22;25568;37.410;-122.096;2023-03-03T04:58:21;18.10;86.30
33508;DHT22;25568;37.410;-122.096;2023-03-03T05:00:54;18.10;86.30
33508;DHT22;25568;37.410;-122.096;2023-03-03T05:03:23;18.10;86.30
33508;DHT22;25568;37.410;-122.096;2023-03-03T05:05:53;18.00;86.30
33508;DHT22;25568;37.410;-122.096;2023-03-03T05:08:22;18.00;86.30
33508;DHT22;25568;37.410;-122.096;2023-03-03T05:10:52;18.00;86.10
33508;DHT22;25568;37.410;-122.096;2023-03-03T05:13:22;18.00;86.20
33508;DHT22;25568;37.410;-122.096;2023-03-03T05:15:52;18.00;86.20
33508;DHT22;25568;37.410;-122.096;2023-03-03T05:18:21;18.00;86.10
33508;DHT22;25568;37.410;-122.096;2023-03-03T05:20:51;18.00;86.20
33508;DHT22;25568;37.410;-122.096;2023-03-03T05:23:21;18.00;86.10
33508;DHT22;25568;37.410;-122.096;2023-03-03T05:25:50;18.00;86.10
33508;DHT22;25568;37.410;-122.096;2023-03-03T05:28:21;18.00;86.10
33508;DHT22;25568;37.410;-122.096;2023-03-03T05:30:50;17.90;86.00
33508;DHT22;25568;37.410;-122.096;2023-03-03T05:33:19;17.90;85.90
33508;DHT22;25568;37.410;-122.096;2023-03-03T05:35:51;17.90;86.00
33508;DHT22;25568;37.410;-122.096;2023-03-03T05:38:20;17.90;85.90
33508;DHT22;25568;37.410;-122.096;2023-03-03T05:40:49;17.80;85.80
33508;DHT22;25568;37.410;-122.096;2023-03-03T05:43:18;17.80;85.70
33508;DHT22;25568;37.410;-122.096;2023-03-03T05:45:54;17.80;85.80
33508;DHT22;25568;37.410;-122.096;2023-03-03T05:48:23;17.80;85.60
33508;DHT22;25568;37.410;-122.096;2023-03-03T05:50:52;17.70;85.50
33508;DHT22;25568;37.410;-122.096;2023-03-03T05:53:21;17.70;85.40
33508;DHT22;25568;37.410;-122.096;2023-03-03T05:55:50;17.70;85.30
33508;DHT22;25568;37.410;-122.096;2023-03-03T05:58:19;17.70;85.30
33508;DHT22;25568;37.410;-122.096;2023-03-03T06:00:49;17.70;85.30
33508;DHT22;25568;37.410;-122.096;2023-03-03T06:03:18;17.70;85.30
33508;DHT22;25568;37.410;-122.096;2023-03-03T06:05:47;17.70;85.40
33508;DHT22;25568;37.410;-122.096;2023-03-03T06:08:16;17.60;85.30
33508;DHT22;25568;37.410;-122.096;2023-03-03T06:10:44;17.60;85.30
33508;DHT22;25568;37.410;-122.096;2023-03-03T06:13:13;17.60;85.40
33508;DHT22;25568;37.410;-122.096;2023-03-03T06:15:42;17.60;85.50
33508;DHT22;25568;37.410;-122.096;2023-03-03T06:18:12;17.60;85.60
33508;DHT22;25568;37.410;-122.096;2023-03-03T06:20:41;17.60;85.60
33508;DHT22;25568;37.410;-122.096;2023-03-03T06:23:10;17.60;85.70
33508;DHT22;25568;37.410;-122.096;2023-03-03T06:25:39;17.60;85.80
33508;DHT22;25568;37.410;-122.096;2023-03-03T06:28:10;17.60;85.80
33508;DHT22;25568;37.410;-122.096;2023-03-03T06:30:39;17.50;85.90
33508;DHT22;25568;37.410;-122.096;2023-03-03T06:33:08;17.50;86.00
33508;DHT22;25568;37.410;-122.096;2023-03-03T06:35:38;17.50;86.10
33508;DHT22;25568;37.410;-122.096;2023-03-03T06:38:07;17.50;86.10
33508;DHT22;25568;37.410;-122.096;2023-03-03T06:40:36;17.50;86.10
33508;DHT22;25568;37.410;-122.096;2023-03-03T06:43:16;17.40;86.00
33508;DHT22;25568;37.410;-122.096;2023-03-03T06:45:45;17.40;86.10
33508;DHT22;25568;37.410;-122.096;2023-03-03T06:48:14;17.40;86.30
33508;DHT22;25568;37.410;-122.096;2023-03-03T06:50:44;17.40;86.30
33508;DHT22;25568;37.410;-122.096;2023-03-03T06:53:15;17.40;86.40
33508;DHT22;25568;37.410;-122.096;2023-03-03T06:55:44;17.40;86.40
33508;DHT22;25568;37.410;-122.096;2023-03-03T06:58:14;17.30;86.40
33508;DHT22;25568;37.410;-122.096;2023-03-03T07:00:45;17.30;86.40
33508;DHT22;25568;37.410;-122.096;2023-03-03T07:03:33;17.30;86.60
33508;DHT22;25568;37.410;-122.096;2023-03-03T07:06:19;17.30;86.60
33508;DHT22;25568;37.410;-122.096;2023-03-03T07:08:48;17.30;86.40
33508;DHT22;25568;37.410;-122.096;2023-03-03T07:11:19;17.30;86.50
33508;DHT22;25568;37.410;-122.096;2023-03-03T07:13:50;17.20;86.40
33508;DHT22;25568;37.410;-122.096;2023-03-03T07:16:24;17.20;86.70
33508;DHT22;25568;37.410;-122.096;2023-03-03T07:18:54;17.20;86.80
33508;DHT22;25568;37.410;-122.096;2023-03-03T07:21:30;17.20;86.90
33508;DHT22;25568;37.410;-122.096;2023-03-03T07:24:07;17.20;86.90
33508;DHT22;25568;37.410;-122.096;2023-03-03T07:26:40;17.20;87.00
33508;DHT22;25568;37.410;-122.096;2023-03-03T07:29:18;17.20;87.10
33508;DHT22;25568;37.410;-122.096;2023-03-03T07:31:50;17.10;87.10
33508;DHT22;25568;37.410;-122.096;2023-03-03T07:34:21;17.10;87.20
33508;DHT22;25568;37.410;-122.096;2023-03-03T07:36:54;17.10;87.10
33508;DHT22;25568;37.410;-122.096;2023-03-03T07:39:30;17.10;87.10
33508;DHT22;25568;37.410;-122.096;2023-03-03T07:42:20;17.00;87.20
33508;DHT22;25568;37.410;-122.096;2023-03-03T07:44:51;17.00;87.20
33508;DHT22;25568;37.410;-122.096;2023-03-03T07:47:23;17.10;87.70
33508;DHT22;25568;37.410;-122.096;2023-03-03T07:49:53;17.00;87.80
33508;DHT22;25568;37.410;-122.096;2023-03-03T07:52:30;17.00;88.10
33508;DHT22;25568;37.410;-122.096;2023-03-03T07:55:01;17.00;88.10
33508;DHT22;25568;37.410;-122.096;2023-03-03T07:57:45;17.00;88.40
33508;DHT22;25568;37.410;-122.096;2023-03-03T08:03:20;17.00;88.70
33508;DHT22;25568;37.410;-122.096;2023-03-03T08:05:49;16.90;88.70
33508;DHT22;25568;37.410;-122.096;2023-03-03T08:08:29;17.00;88.90
33508;DHT22;25568;37.410;-122.096;2023-03-03T08:10:59;16.90;89.00
33508;DHT22;25568;37.410;-122.096;2023-03-03T08:13:34;16.90;89.10
33508;DHT22;25568;37.410;-122.096;2023-03-03T08:16:22;16.90;89.20
33508;DHT22;25568;37.410;-122.096;2023-03-03T08:18:53;16.90;89.30
33508;DHT22;25568;37.410;-122.096;2023-03-03T08:21:24;16.90;90.10
33508;DHT22;25568;37.410;-122.096;2023-03-03T08:23:55;16.90;89.50
33508;DHT22;25568;37.410;-122.096;2023-03-03T08:26:25;16.90;89.80
33508;DHT22;25568;37.410;-122.096;2023-03-03T08:28:54;16.90;89.90
33508;DHT22;25568;37.410;-122.096;2023-03-03T08:31:23;16.80;90.00
33508;DHT22;25568;37.410;-122.096;2023-03-03T08:33:52;16.80;90.00
33508;DHT22;25568;37.410;-122.096;2023-03-03T08:36:21;16.80;90.00
33508;DHT22;25568;37.410;-122.096;2023-03-03T08:38:50;16.80;90.00
33508;DHT22;25568;37.410;-122.096;2023-03-03T08:41:20;16.80;90.10
33508;DHT22;25568;37.410;-122.096;2023-03-03T08:43:49;16.80;90.10
33508;DHT22;25568;37.410;-122.096;2023-03-03T08:46:18;16.80;90.20
33508;DHT22;25568;37.410;-122.096;2023-03-03T08:48:46;16.80;90.30
33508;DHT22;25568;37.410;-122.096;2023-03-03T08:51:15;16.80;90.40
33508;DHT22;25568;37.410;-122.096;2023-03-03T08:53:44;16.80;90.40
33508;DHT22;25568;37.410;-122.096;2023-03-03T08:56:13;16.80;90.40
33508;DHT22;25568;37.410;-122.096;2023-03-03T08:58:43;16.80;90.60
33508;DHT22;25568;37.410;-122.096;2023-03-03T09:01:13;16.80;90.70
33508;DHT22;25568;37.410;-122.096;2023-03-03T09:03:43;16.80;90.70
33508;DHT22;25568;37.410;-122.096;2023-03-03T09:06:12;16.70;90.70
33508;DHT22;25568;37.410;-122.096;2023-03-03T09:08:41;16.70;90.80
33508;DHT22;25568;37.410;-122.096;2023-03-03T09:11:12;16.70;90.80
33508;DHT22;25568;37.410;-122.096;2023-03-03T09:13:42;16.70;90.80
33508;DHT22;25568;37.410;-122.096;2023-03-03T09:16:14;16.70;90.90
33508;DHT22;25568;37.410;-122.096;2023-03-03T09:18:43;16.70;90.90
33508;DHT22;25568;37.410;-122.096;2023-03-03T09:21:21;16.70;90.90
33508;DHT22;25568;37.410;-122.096;2023-03-03T09:23:54;16.60;90.80
33508;DHT22;25568;37.410;-122.096;2023-03-03T09:26:28;16.60;90.90
33508;DHT22;25568;37.410;-122.096;2023-03-03T09:29:15;16.60;90.90
33508;DHT22;25568;37.410;-122.096;2023-03-03T09:31:48;16.60;90.90
33508;DHT22;25568;37.410;-122.096;2023-03-03T09:34:23;16.60;91.00
33508;DHT22;25568;37.410;-122.096;2023-03-03T09:36:54;16.60;91.00
33508;DHT22;25568;37.410;-122.096;2023-03-03T09:39:26;16.60;91.10
33508;DHT22;25568;37.410;-122.096;2023-03-03T09:42:09;16.50;91.10
33508;DHT22;25568;37.410;-122.096;2023-03-03T09:45:04;16.50;91.10
33508;DHT22;25568;37.410;-122.096;2023-03-03T09:48:09;16.60;91.20
33508;DHT22;25568;37.410;-122.096;2023-03-03T09:50:48;16.50;91.20
33508;DHT22;25568;37.410;-122.096;2023-03-03T09:53:26;16.50;91.20
33508;DHT22;25568;37.410;-122.096;2023-03-03T09:56:07;16.50;91.30
33508;DHT22;25568;37.410;-122.096;2023-03-03T09:58:46;16.50;91.30
33508;DHT22;25568;37.410;-122.096;2023-03-03T10:01:38;16.50;91.40
33508;DHT22;25568;37.410;-122.096;2023-03-03T10:07:26;16.50;91.40
33508;DHT22;25568;37.410;-122.096;2023-03-03T10:10:16;16.50;91.50
33508;DHT22;25568;37.410;-122.096;2023-03-03T10:13:00;16.50;91.50
33508;DHT22;25568;37.410;-122.096;2023-03-03T10:15:37;16.50;91.50
33508;DHT22;25568;37.410;-122.096;2023-03-03T10:18:20;16.40;91.40
33508;DHT22;25568;37.410;-122.096;2023-03-03T10:21:03;16.40;91.50
33508;DHT22;25568;37.410;-122.096;2023-03-03T10:23:52;16.40;91.50
33508;DHT22;25568;37.410;-122.096;2023-03-03T10:29:29;16.40;91.50
33508;DHT22;25568;37.410;-122.096;2023-03-03T10:35:27;16.40;91.60
33508;DHT22;25568;37.410;-122.096;2023-03-03T10:41:34;16.30;91.60
33508;DHT22;25568;37.410;-122.096;2023-03-03T10:44:30;16.30;91.60
33508;DHT22;25568;37.410;-122.096;2023-03-03T10:50:15;16.30;91.70
33508;DHT22;25568;37.410;-122.096;2023-03-03T10:52:49;16.30;91.70
33508;DHT22;25568;37.410;-122.096;2023-03-03T10:55:37;16.30;91.70
33508;DHT22;25568;37.410;-122.096;2023-03-03T10:58:22;16.30;91.70
33508;DHT22;25568;37.410;-122.096;2023-03-03T11:01:00;16.20;91.70
33508;DHT22;25568;37.410;-122.096;2023-03-03T11:04:02;16.20;91.70
33508;DHT22;25568;37.410;-122.096;2023-03-03T11:06:42;16.20;91.80
33508;DHT22;25568;37.410;-122.096;2023-03-03T11:09:30;16.20;92.20
33508;DHT22;25568;37.410;-122.096;2023-03-03T11:12:14;16.20;91.80
33508;DHT22;25568;37.410;-122.096;2023-03-03T11:14:48;16.20;91.80
33508;DHT22;25568;37.410;-122.096;2023-03-03T11:17:22;16.20;91.90
33508;DHT22;25568;37.410;-122.096;2023-03-03T11:20:01;16.20;91.90
33508;DHT22;25568;37.410;-122.096;2023-03-03T11:22:37;16.20;91.90
33508;DHT22;25568;37.410;-122.096;2023-03-03T11:25:22;16.20;91.90
33508;DHT22;25568;37.410;-122.096;2023-03-03T11:28:13;16.20;91.80
33508;DHT22;25568;37.410;-122.096;2023-03-03T11:30:54;16.20;91.80
33508;DHT22;25568;37.410;-122.096;2023-03-03T11:33:33;16.20;91.80
33508;DHT22;25568;37.410;-122.096;2023-03-03T11:36:11;16.20;91.80
33508;DHT22;25568;37.410;-122.096;2023-03-03T11:38:50;16.20;91.80
33508;DHT22;25568;37.410;-122.096;2023-03-03T11:41:34;16.20;91.80
33508;DHT22;25568;37.410;-122.096;2023-03-03T11:44:10;16.20;91.80
33508;DHT22;25568;37.410;-122.096;2023-03-03T11:46:45;16.10;91.70
33508;DHT22;25568;37.410;-122.096;2023-03-03T11:49:20;16.10;91.70
33508;DHT22;25568;37.410;-122.096;2023-03-03T11:51:55;16.10;91.60
33508;DHT22;25568;37.410;-122.096;2023-03-03T11:54:30;16.10;91.50
33508;DHT22;25568;37.410;-122.096;2023-03-03T11:57:13;16.30;91.50
33508;DHT22;25568;37.410;-122.096;2023-03-03T11:59:49;16.30;91.30
33508;DHT22;25568;37.410;-122.096;2023-03-03T12:02:42;16.30;91.30
33508;DHT22;25568;37.410;-122.096;2023-03-03T12:05:26;16.40;91.30
33508;DHT22;25568;37.410;-122.096;2023-03-03T12:08:08;16.40;91.30
33508;DHT22;25568;37.410;-122.096;2023-03-03T12:10:45;16.30;91.40
33508;DHT22;25568;37.410;-122.096;2023-03-03T12:13:25;16.30;91.60
33508;DHT22;25568;37.410;-122.096;2023-03-03T12:16:03;16.30;91.70
33508;DHT22;25568;37.410;-122.096;2023-03-03T12:18:48;16.30;91.70
33508;DHT22;25568;37.410;-122.096;2023-03-03T12:21:37;16.20;91.70
33508;DHT22;25568;37.410;-122.096;2023-03-03T12:24:31;16.20;91.70
33508;DHT22;25568;37.410;-122.096;2023-03-03T12:27:13;16.20;91.70
33508;DHT22;25568;37.410;-122.096;2023-03-03T12:29:54;16.20;91.70
33508;DHT22;25568;37.410;-122.096;2023-03-03T12:32:38;16.20;91.80
33508;DHT22;25568;37.410;-122.096;2023-03-03T12:35:18;16.20;91.80
33508;DHT22;25568;37.410;-122.096;2023-03-03T12:37:53;16.10;91.80
33508;DHT22;25568;37.410;-122.096;2023-03-03T12:40:29;16.10;91.80
33508;DHT22;25568;37.410;-122.096;2023-03-03T12:43:16;16.10;91.80
33508;DHT22;25568;37.410;-122.096;2023-03-03T12:45:57;16.10;91.80
33508;DHT22;25568;37.410;-122.096;2023-03-03T12:48:37;16.10;91.90
33508;DHT22;25568;37.410;-122.096;2023-03-03T12:51:13;16.10;91.90
33508;DHT22;25568;37.410;-122.096;2023-03-03T12:54:03;16.00;91.90
33508;DHT22;25568;37.410;-122.096;2023-03-03T12:56:39;16.10;91.80
33508;DHT22;25568;37.410;-122.096;2023-03-03T12:59:13;16.20;91.70
33508;DHT22;25568;37.410;-122.096;2023-03-03T13:01:56;16.20;91.70
33508;DHT22;25568;37.410;-122.096;2023-03-03T13:04:34;16.30;91.60
33508;DHT22;25568;37.410;-122.096;2023-03-03T13:07:09;16.30;91.60
33508;DHT22;25568;37.410;-122.096;2023-03-03T13:09:55;16.40;91.90
33508;DHT22;25568;37.410;-122.096;2023-03-03T13:12:38;16.40;91.60
33508;DHT22;25568;37.410;-122.096;2023-03-03T13:15:14;16.50;91.60
33508;DHT22;25568;37.410;-122.096;2023-03-03T13:17:58;16.50;91.60
33508;DHT22;25568;37.410;-122.096;2023-03-03T13:20:36;16.50;91.60
33508;DHT22;25568;37.410;-122.096;2023-03-03T13:23:11;16.50;91.60
33508;DHT22;25568;37.410;-122.096;2023-03-03T13:25:49;16.60;91.70
33508;DHT22;25568;37.410;-122.096;2023-03-03T13:28:24;16.60;91.70
33508;DHT22;25568;37.410;-122.096;2023-03-03T13:31:00;16.60;91.70
33508;DHT22;25568;37.410;-122.096;2023-03-03T13:33:33;16.70;91.70
33508;DHT22;25568;37.410;-122.096;2023-03-03T13:36:06;16.70;91.70
33508;DHT22;25568;37.410;-122.096;2023-03-03T13:38:40;16.60;91.70
33508;DHT22;25568;37.410;-122.096;2023-03-03T13:41:19;16.60;91.80
33508;DHT22;25568;37.410;-122.096;2023-03-03T13:43:51;16.60;91.80
33508;DHT22;25568;37.410;-122.096;2023-03-03T13:46:32;16.50;91.80
33508;DHT22;25568;37.410;-122.096;2023-03-03T13:49:20;16.50;91.90
33508;DHT22;25568;37.410;-122.096;2023-03-03T13:51:56;16.40;91.90
33508;DHT22;25568;37.410;-122.096;2023-03-03T13:57:43;16.40;91.90
33508;DHT22;25568;37.410;-122.096;2023-03-03T14:00:26;16.40;92.00
33508;DHT22;25568;37.410;-122.096;2023-03-03T14:03:17;16.40;92.10
33508;DHT22;25568;37.410;-122.096;2023-03-03T14:05:51;16.30;92.00
33508;DHT22;25568;37.410;-122.096;2023-03-03T14:08:37;16.30;92.10
33508;DHT22;25568;37.410;-122.096;2023-03-03T14:11:12;16.30;92.10
33508;DHT22;25568;37.410;-122.096;2023-03-03T14:14:02;16.30;92.20
33508;DHT22;25568;37.410;-122.096;2023-03-03T14:16:45;16.30;92.20
33508;DHT22;25568;37.410;-122.096;2023-03-03T14:19:18;16.30;92.30
33508;DHT22;25568;37.410;-122.096;2023-03-03T14:22:01;16.30;92.30
33508;DHT22;25568;37.410;-122.096;2023-03-03T14:24:56;16.20;92.20
33508;DHT22;25568;37.410;-122.096;2023-03-03T14:27:33;16.20;92.20
33508;DHT22;25568;37.410;-122.096;2023-03-03T14:30:27;16.20;92.10
33508;DHT22;25568;37.410;-122.096;2023-03-03T14:33:18;16.10;92.10
33508;DHT22;25568;37.410;-122.096;2023-03-03T14:36:02;16.10;92.10
33508;DHT22;25568;37.410;-122.096;2023-03-03T14:38:47;16.10;92.10
33508;DHT22;25568;37.410;-122.096;2023-03-03T14:41:22;16.00;92.10
33508;DHT22;25568;37.410;-122.096;2023-03-03T14:44:23;16.00;92.10
33508;DHT22;25568;37.410;-122.096;2023-03-03T14:47:19;16.00;92.10
33508;DHT22;25568;37.410;-122.096;2023-03-03T14:49:50;16.00;92.10
33508;DHT22;25568;37.410;-122.096;2023-03-03T14:52:23;16.00;92.10
33508;DHT22;25568;37.410;-122.096;2023-03-03T14:54:55;15.90;92.00
33508;DHT22;25568;37.410;-122.096;2023-03-03T14:57:39;15.90;92.10
33508;DHT22;25568;37.410;-122.096;2023-03-03T15:00:29;15.90;92.10
33508;DHT22;25568;37.410;-122.096;2023-03-03T15:03:13;15.90;92.10
33508;DHT22;25568;37.410;-122.096;2023-03-03T15:05:48;15.90;92.00
33508;DHT22;25568;37.410;-122.096;2023-03-03T15:08:32;15.90;91.90
33508;DHT22;25568;37.410;-122.096;2023-03-03T15:11:20;16.00;91.80
33508;DHT22;25568;37.410;-122.096;2023-03-03T15:14:02;16.10;91.70
33508;DHT22;25568;37.410;-122.096;2023-03-03T15:16:34;16.10;91.70
33508;DHT22;25568;37.410;-122.096;2023-03-03T15:19:36;16.10;91.60
33508;DHT22;25568;37.410;-122.096;2023-03-03T15:22:18;16.20;91.50
33508;DHT22;25568;37.410;-122.096;2023-03-03T15:24:55;16.30;91.30
33508;DHT22;25568;37.410;-122.096;2023-03-03T15:27:31;16.30;91.20
33508;DHT22;25568;37.410;-122.096;2023-03-03T15:30:08;16.40;91.30
33508;DHT22;25568;37.410;-122.096;2023-03-03T15:32:47;16.40;91.30
33508;DHT22;25568;37.410;-122.096;2023-03-03T15:35:42;16.50;91.60
33508;DHT22;25568;37.410;-122.096;2023-03-03T15:38:26;16.60;91.10
33508;DHT22;25568;37.410;-122.096;2023-03-03T15:41:03;16.70;90.80
33508;DHT22;25568;37.410;-122.096;2023-03-03T15:43:41;16.70;90.40
33508;DHT22;25568;37.410;-122.096;2023-03-03T15:46:20;16.60;90.40
33508;DHT22;25568;37.410;-122.096;2023-03-03T15:49:04;16.70;90.30
33508;DHT22;25568;37.410;-122.096;2023-03-03T15:51:51;16.60;90.20
33508;DHT22;25568;37.410;-122.096;2023-03-03T15:54:30;16.60;90.50
33508;DHT22;25568;37.410;-122.096;2023-03-03T15:57:04;16.50;90.40